sensor_id;sensor_type;location;lat;lon;timestamp;P1;durP1;ratioP1;P2;durP2;ratioP2
79644;SDS011;69117;47.148;18.954;2023-10-08T00:00:45;1.90;;;1.30;;
79644;SDS011;69117;47.148;18.954;2023-10-08T00:03:50;3.05;;;1.60;;
79644;SDS011;69117;47.148;18.954;2023-10-08T00:06:54;3.88;;;1.13;;
79644;SDS011;69117;47.148;18.954;2023-10-08T00:09:56;5.15;;;1.52;;
79644;SDS011;69117;47.148;18.954;2023-10-08T00:12:58;2.47;;;1.30;;
79644;SDS011;69117;47.148;18.954;2023-10-08T00:16:00;2.05;;;1.67;;
79644;SDS011;69117;47.148;18.954;2023-10-08T00:19:01;2.30;;;1.30;;
79644;SDS011;69117;47.148;18.954;2023-10-08T00:22:10;2.65;;;1.48;;
79644;SDS011;69117;47.148;18.954;2023-10-08T00:25:14;3.10;;;1.92;;
79644;SDS011;69117;47.148;18.954;2023-10-08T00:28:17;3.50;;;2.10;;
79644;SDS011;69117;47.148;18.954;2023-10-08T00:31:19;3.08;;;1.48;;
79644;SDS011;69117;47.148;18.954;2023-10-08T00:34:25;3.90;;;2.35;;
79644;SDS011;69117;47.148;18.954;2023-10-08T00:37:29;2.10;;;1.27;;
79644;SDS011;69117;47.148;18.954;2023-10-08T00:40:40;3.13;;;1.65;;
79644;SDS011;69117;47.148;18.954;2023-10-08T00:43:47;3.85;;;1.88;;
79644;SDS011;69117;47.148;18.954;2023-10-08T00:46:50;4.47;;;1.88;;
79644;SDS011;69117;47.148;18.954;2023-10-08T00:49:52;3.00;;;1.63;;
79644;SDS011;69117;47.148;18.954;2023-10-08T00:53:08;3.20;;;1.80;;
79644;SDS011;69117;47.148;18.954;2023-10-08T00:56:24;3.17;;;2.05;;
79644;SDS011;69117;47.148;18.954;2023-10-08T00:59:48;2.78;;;1.58;;
79644;SDS011;69117;47.148;18.954;2023-10-08T01:02:57;3.80;;;1.42;;
79644;SDS011;69117;47.148;18.954;2023-10-08T01:06:03;3.72;;;1.85;;
79644;SDS011;69117;47.148;18.954;2023-10-08T01:09:05;3.10;;;1.77;;
79644;SDS011;69117;47.148;18.954;2023-10-08T01:12:20;5.78;;;1.75;;
79644;SDS011;69117;47.148;18.954;2023-10-08T01:15:27;4.03;;;1.63;;
79644;SDS011;69117;47.148;18.954;2023-10-08T01:18:36;4.55;;;2.00;;
79644;SDS011;69117;47.148;18.954;2023-10-08T01:21:44;2.65;;;1.65;;
79644;SDS011;69117;47.148;18.954;2023-10-08T01:24:46;4.32;;;1.63;;
79644;SDS011;69117;47.148;18.954;2023-10-08T01:27:56;3.47;;;1.77;;
79644;SDS011;69117;47.148;18.954;2023-10-08T01:31:15;3.38;;;1.50;;
79644;SDS011;69117;47.148;18.954;2023-10-08T01:34:17;4.07;;;2.08;;
79644;SDS011;69117;47.148;18.954;2023-10-08T01:37:19;5.22;;;2.05;;
79644;SDS011;69117;47.148;18.954;2023-10-08T01:40:23;2.28;;;1.27;;
79644;SDS011;69117;47.148;18.954;2023-10-08T01:43:24;3.55;;;1.77;;
79644;SDS011;69117;47.148;18.954;2023-10-08T01:46:28;3.05;;;1.27;;
79644;SDS011;69117;47.148;18.954;2023-10-08T01:49:33;3.97;;;1.45;;
79644;SDS011;69117;47.148;18.954;2023-10-08T01:52:35;4.00;;;1.80;;
79644;SDS011;69117;47.148;18.954;2023-10-08T01:55:36;2.45;;;1.73;;
79644;SDS011;69117;47.148;18.954;2023-10-08T01:58:48;2.97;;;1.40;;
79644;SDS011;69117;47.148;18.954;2023-10-08T02:01:50;3.13;;;1.70;;
79644;SDS011;69117;47.148;18.954;2023-10-08T02:04:57;2.33;;;1.55;;
79644;SDS011;69117;47.148;18.954;2023-10-08T02:07:58;2.97;;;1.42;;
79644;SDS011;69117;47.148;18.954;2023-10-08T02:11:00;3.65;;;2.20;;
79644;SDS011;69117;47.148;18.954;2023-10-08T02:14:03;3.60;;;1.60;;
79644;SDS011;69117;47.148;18.954;2023-10-08T02:17:06;4.57;;;1.80;;
79644;SDS011;69117;47.148;18.954;2023-10-08T02:20:08;4.60;;;2.55;;
79644;SDS011;69117;47.148;18.954;2023-10-08T02:23:10;4.57;;;2.00;;
79644;SDS011;69117;47.148;18.954;2023-10-08T02:26:13;2.90;;;1.30;;
79644;SDS011;69117;47.148;18.954;2023-10-08T02:29:16;5.03;;;2.70;;
79644;SDS011;69117;47.148;18.954;2023-10-08T02:32:17;3.50;;;1.63;;
79644;SDS011;69117;47.148;18.954;2023-10-08T02:35:20;3.00;;;1.40;;
79644;SDS011;69117;47.148;18.954;2023-10-08T02:38:23;3.67;;;1.45;;
79644;SDS011;69117;47.148;18.954;2023-10-08T02:41:25;4.30;;;1.95;;
79644;SDS011;69117;47.148;18.954;2023-10-08T02:44:27;8.10;;;1.95;;
79644;SDS011;69117;47.148;18.954;2023-10-08T02:47:29;3.83;;;1.90;;
79644;SDS011;69117;47.148;18.954;2023-10-08T02:50:31;3.58;;;1.85;;
79644;SDS011;69117;47.148;18.954;2023-10-08T02:53:34;2.90;;;1.25;;
79644;SDS011;69117;47.148;18.954;2023-10-08T02:56:36;2.92;;;1.55;;
79644;SDS011;69117;47.148;18.954;2023-10-08T02:59:40;3.72;;;1.48;;
79644;SDS011;69117;47.148;18.954;2023-10-08T03:02:42;2.88;;;1.50;;
79644;SDS011;69117;47.148;18.954;2023-10-08T03:05:53;2.72;;;1.55;;
79644;SDS011;69117;47.148;18.954;2023-10-08T03:08:58;2.85;;;1.27;;
79644;SDS011;69117;47.148;18.954;2023-10-08T03:12:05;3.80;;;1.52;;
79644;SDS011;69117;47.148;18.954;2023-10-08T03:15:10;2.42;;;1.23;;
79644;SDS011;69117;47.148;18.954;2023-10-08T03:18:14;4.25;;;1.75;;
79644;SDS011;69117;47.148;18.954;2023-10-08T03:21:16;2.38;;;1.55;;
79644;SDS011;69117;47.148;18.954;2023-10-08T03:24:25;2.38;;;1.30;;
79644;SDS011;69117;47.148;18.954;2023-10-08T03:27:38;4.95;;;1.80;;
79644;SDS011;69117;47.148;18.954;2023-10-08T03:30:43;3.25;;;2.13;;
79644;SDS011;69117;47.148;18.954;2023-10-08T03:33:51;2.95;;;1.25;;
79644;SDS011;69117;47.148;18.954;2023-10-08T03:36:53;2.30;;;1.27;;
79644;SDS011;69117;47.148;18.954;2023-10-08T03:40:06;3.05;;;1.33;;
79644;SDS011;69117;47.148;18.954;2023-10-08T03:43:25;4.72;;;1.55;;
79644;SDS011;69117;47.148;18.954;2023-10-08T03:46:36;1.20;;;0.82;;
79644;SDS011;69117;47.148;18.954;2023-10-08T03:49:48;3.15;;;1.02;;
79644;SDS011;69117;47.148;18.954;2023-10-08T03:52:52;2.42;;;0.93;;
79644;SDS011;69117;47.148;18.954;2023-10-08T03:55:56;4.30;;;1.25;;
79644;SDS011;69117;47.148;18.954;2023-10-08T03:59:02;1.73;;;0.80;;
79644;SDS011;69117;47.148;18.954;2023-10-08T04:02:31;2.85;;;1.25;;
79644;SDS011;69117;47.148;18.954;2023-10-08T04:05:42;1.00;;;0.52;;
79644;SDS011;69117;47.148;18.954;2023-10-08T04:09:16;3.10;;;1.25;;
79644;SDS011;69117;47.148;18.954;2023-10-08T04:12:22;3.40;;;1.50;;
79644;SDS011;69117;47.148;18.954;2023-10-08T04:15:23;3.78;;;0.80;;
79644;SDS011;69117;47.148;18.954;2023-10-08T04:18:25;1.27;;;1.17;;
79644;SDS011;69117;47.148;18.954;2023-10-08T04:21:28;3.33;;;1.38;;
79644;SDS011;69117;47.148;18.954;2023-10-08T04:24:29;3.60;;;0.73;;
79644;SDS011;69117;47.148;18.954;2023-10-08T04:27:37;3.83;;;0.82;;
79644;SDS011;69117;47.148;18.954;2023-10-08T04:30:39;3.85;;;0.70;;
79644;SDS011;69117;47.148;18.954;2023-10-08T04:33:43;2.80;;;1.10;;
79644;SDS011;69117;47.148;18.954;2023-10-08T04:36:45;1.83;;;0.73;;
79644;SDS011;69117;47.148;18.954;2023-10-08T04:39:47;1.88;;;1.02;;
79644;SDS011;69117;47.148;18.954;2023-10-08T04:42:58;1.90;;;1.20;;
79644;SDS011;69117;47.148;18.954;2023-10-08T04:46:03;1.17;;;0.55;;
79644;SDS011;69117;47.148;18.954;2023-10-08T04:49:21;3.45;;;0.98;;
79644;SDS011;69117;47.148;18.954;2023-10-08T04:52:31;2.75;;;0.82;;
79644;SDS011;69117;47.148;18.954;2023-10-08T04:55:35;1.65;;;1.00;;
79644;SDS011;69117;47.148;18.954;2023-10-08T05:01:47;3.63;;;0.88;;
79644;SDS011;69117;47.148;18.954;2023-10-08T05:04:50;2.08;;;0.95;;
79644;SDS011;69117;47.148;18.954;2023-10-08T05:07:58;1.52;;;0.98;;
79644;SDS011;69117;47.148;18.954;2023-10-08T05:11:02;2.22;;;1.08;;
79644;SDS011;69117;47.148;18.954;2023-10-08T05:14:17;2.13;;;1.05;;
79644;SDS011;69117;47.148;18.954;2023-10-08T05:17:31;2.92;;;0.95;;
79644;SDS011;69117;47.148;18.954;2023-10-08T05:20:47;3.53;;;1.77;;
79644;SDS011;69117;47.148;18.954;2023-10-08T05:23:52;2.05;;;0.98;;
79644;SDS011;69117;47.148;18.954;2023-10-08T05:27:15;3.25;;;0.98;;
79644;SDS011;69117;47.148;18.954;2023-10-08T05:30:36;3.80;;;1.17;;
79644;SDS011;69117;47.148;18.954;2023-10-08T05:33:38;3.17;;;1.10;;
79644;SDS011;69117;47.148;18.954;2023-10-08T05:36:58;2.00;;;0.73;;
79644;SDS011;69117;47.148;18.954;2023-10-08T05:40:00;1.98;;;1.77;;
79644;SDS011;69117;47.148;18.954;2023-10-08T05:43:14;2.78;;;1.05;;
79644;SDS011;69117;47.148;18.954;2023-10-08T05:46:35;2.22;;;1.23;;
79644;SDS011;69117;47.148;18.954;2023-10-08T05:49:52;4.18;;;1.00;;
79644;SDS011;69117;47.148;18.954;2023-10-08T05:53:12;2.20;;;0.88;;
79644;SDS011;69117;47.148;18.954;2023-10-08T05:56:21;5.25;;;1.02;;
79644;SDS011;69117;47.148;18.954;2023-10-08T05:59:44;3.22;;;0.60;;
79644;SDS011;69117;47.148;18.954;2023-10-08T06:02:59;1.00;;;0.68;;
79644;SDS011;69117;47.148;18.954;2023-10-08T06:06:23;3.90;;;0.70;;
79644;SDS011;69117;47.148;18.954;2023-10-08T06:09:27;2.13;;;0.55;;
79644;SDS011;69117;47.148;18.954;2023-10-08T06:12:38;4.80;;;1.05;;
79644;SDS011;69117;47.148;18.954;2023-10-08T06:15:51;1.77;;;0.43;;
79644;SDS011;69117;47.148;18.954;2023-10-08T06:18:53;1.88;;;0.68;;
79644;SDS011;69117;47.148;18.954;2023-10-08T06:21:55;2.15;;;0.70;;
79644;SDS011;69117;47.148;18.954;2023-10-08T06:24:57;2.05;;;0.60;;
79644;SDS011;69117;47.148;18.954;2023-10-08T06:28:17;2.45;;;0.93;;
79644;SDS011;69117;47.148;18.954;2023-10-08T06:31:22;3.08;;;0.68;;
79644;SDS011;69117;47.148;18.954;2023-10-08T06:34:26;2.35;;;0.85;;
79644;SDS011;69117;47.148;18.954;2023-10-08T06:37:29;3.28;;;0.88;;
79644;SDS011;69117;47.148;18.954;2023-10-08T06:40:35;2.97;;;0.88;;
79644;SDS011;69117;47.148;18.954;2023-10-08T06:43:37;5.00;;;1.15;;
79644;SDS011;69117;47.148;18.954;2023-10-08T06:46:39;3.03;;;0.95;;
79644;SDS011;69117;47.148;18.954;2023-10-08T06:49:42;2.30;;;0.75;;
79644;SDS011;69117;47.148;18.954;2023-10-08T06:52:44;2.33;;;0.90;;
79644;SDS011;69117;47.148;18.954;2023-10-08T06:55:46;1.38;;;0.52;;
79644;SDS011;69117;47.148;18.954;2023-10-08T06:58:49;3.90;;;0.65;;
79644;SDS011;69117;47.148;18.954;2023-10-08T07:01:54;0.82;;;0.40;;
79644;SDS011;69117;47.148;18.954;2023-10-08T07:04:56;3.47;;;0.52;;
79644;SDS011;69117;47.148;18.954;2023-10-08T07:07:58;5.28;;;0.98;;
79644;SDS011;69117;47.148;18.954;2023-10-08T07:11:00;1.40;;;0.43;;
79644;SDS011;69117;47.148;18.954;2023-10-08T07:17:12;2.55;;;0.63;;
79644;SDS011;69117;47.148;18.954;2023-10-08T07:20:21;2.17;;;0.43;;
79644;SDS011;69117;47.148;18.954;2023-10-08T07:23:24;1.52;;;0.55;;
79644;SDS011;69117;47.148;18.954;2023-10-08T07:29:42;1.70;;;0.73;;
79644;SDS011;69117;47.148;18.954;2023-10-08T07:32:48;2.80;;;0.82;;
79644;SDS011;69117;47.148;18.954;2023-10-08T07:35:51;1.45;;;0.65;;
79644;SDS011;69117;47.148;18.954;2023-10-08T07:39:13;1.85;;;0.88;;
79644;SDS011;69117;47.148;18.954;2023-10-08T07:42:33;2.88;;;0.80;;
79644;SDS011;69117;47.148;18.954;2023-10-08T07:45:35;4.43;;;0.98;;
79644;SDS011;69117;47.148;18.954;2023-10-08T07:48:36;6.43;;;1.02;;
79644;SDS011;69117;47.148;18.954;2023-10-08T07:51:44;6.10;;;1.40;;
79644;SDS011;69117;47.148;18.954;2023-10-08T07:54:52;1.60;;;0.55;;
79644;SDS011;69117;47.148;18.954;2023-10-08T07:57:54;5.53;;;1.35;;
79644;SDS011;69117;47.148;18.954;2023-10-08T08:00:56;1.50;;;0.95;;
79644;SDS011;69117;47.148;18.954;2023-10-08T08:03:58;2.42;;;1.20;;
79644;SDS011;69117;47.148;18.954;2023-10-08T08:06:59;3.72;;;0.73;;
79644;SDS011;69117;47.148;18.954;2023-10-08T08:10:02;3.90;;;1.10;;
79644;SDS011;69117;47.148;18.954;2023-10-08T08:13:12;3.67;;;1.00;;
79644;SDS011;69117;47.148;18.954;2023-10-08T08:16:21;3.05;;;0.73;;
79644;SDS011;69117;47.148;18.954;2023-10-08T08:19:23;5.85;;;1.15;;
79644;SDS011;69117;47.148;18.954;2023-10-08T08:22:25;1.77;;;1.35;;
79644;SDS011;69117;47.148;18.954;2023-10-08T08:25:39;0.75;;;0.43;;
79644;SDS011;69117;47.148;18.954;2023-10-08T08:28:57;1.48;;;1.13;;
79644;SDS011;69117;47.148;18.954;2023-10-08T08:32:01;1.98;;;1.23;;
79644;SDS011;69117;47.148;18.954;2023-10-08T08:35:06;2.10;;;1.23;;
79644;SDS011;69117;47.148;18.954;2023-10-08T08:38:09;1.35;;;0.52;;
79644;SDS011;69117;47.148;18.954;2023-10-08T08:41:11;5.43;;;1.23;;
79644;SDS011;69117;47.148;18.954;2023-10-08T08:44:13;2.83;;;0.75;;
79644;SDS011;69117;47.148;18.954;2023-10-08T08:47:16;1.10;;;0.60;;
79644;SDS011;69117;47.148;18.954;2023-10-08T08:50:19;4.20;;;1.00;;
79644;SDS011;69117;47.148;18.954;2023-10-08T08:53:27;3.95;;;1.10;;
79644;SDS011;69117;47.148;18.954;2023-10-08T08:56:30;0.95;;;0.85;;
79644;SDS011;69117;47.148;18.954;2023-10-08T08:59:33;4.40;;;0.45;;
79644;SDS011;69117;47.148;18.954;2023-10-08T09:02:38;2.15;;;0.35;;
79644;SDS011;69117;47.148;18.954;2023-10-08T09:05:40;2.15;;;1.25;;
79644;SDS011;69117;47.148;18.954;2023-10-08T09:08:43;1.63;;;0.68;;
79644;SDS011;69117;47.148;18.954;2023-10-08T09:11:48;1.48;;;0.43;;
79644;SDS011;69117;47.148;18.954;2023-10-08T09:14:53;1.58;;;0.80;;
79644;SDS011;69117;47.148;18.954;2023-10-08T09:18:04;1.67;;;0.80;;
79644;SDS011;69117;47.148;18.954;2023-10-08T09:21:07;2.38;;;0.98;;
79644;SDS011;69117;47.148;18.954;2023-10-08T09:24:12;3.72;;;0.80;;
79644;SDS011;69117;47.148;18.954;2023-10-08T09:27:20;1.55;;;0.82;;
79644;SDS011;69117;47.148;18.954;2023-10-08T09:30:22;1.13;;;0.80;;
79644;SDS011;69117;47.148;18.954;2023-10-08T09:33:27;1.58;;;0.73;;
79644;SDS011;69117;47.148;18.954;2023-10-08T09:36:29;1.83;;;0.60;;
79644;SDS011;69117;47.148;18.954;2023-10-08T09:39:33;3.38;;;1.02;;
79644;SDS011;69117;47.148;18.954;2023-10-08T09:42:35;3.17;;;0.65;;
79644;SDS011;69117;47.148;18.954;2023-10-08T09:45:40;2.83;;;1.27;;
79644;SDS011;69117;47.148;18.954;2023-10-08T09:48:48;2.13;;;1.13;;
79644;SDS011;69117;47.148;18.954;2023-10-08T09:51:52;1.80;;;0.57;;
79644;SDS011;69117;47.148;18.954;2023-10-08T09:54:58;1.58;;;0.32;;
79644;SDS011;69117;47.148;18.954;2023-10-08T09:58:04;2.17;;;0.70;;
79644;SDS011;69117;47.148;18.954;2023-10-08T10:01:07;2.20;;;1.17;;
79644;SDS011;69117;47.148;18.954;2023-10-08T10:04:11;1.38;;;0.60;;
79644;SDS011;69117;47.148;18.954;2023-10-08T10:07:14;1.30;;;0.60;;
79644;SDS011;69117;47.148;18.954;2023-10-08T10:10:24;2.58;;;0.77;;
79644;SDS011;69117;47.148;18.954;2023-10-08T10:17:08;2.88;;;0.45;;
79644;SDS011;69117;47.148;18.954;2023-10-08T10:20:41;1.60;;;0.60;;
79644;SDS011;69117;47.148;18.954;2023-10-08T10:23:48;1.60;;;0.80;;
79644;SDS011;69117;47.148;18.954;2023-10-08T10:26:52;1.27;;;0.82;;
79644;SDS011;69117;47.148;18.954;2023-10-08T10:30:12;2.03;;;0.93;;
79644;SDS011;69117;47.148;18.954;2023-10-08T10:33:29;6.40;;;1.08;;
79644;SDS011;69117;47.148;18.954;2023-10-08T10:36:33;3.80;;;1.20;;
79644;SDS011;69117;47.148;18.954;2023-10-08T10:39:35;4.03;;;0.90;;
79644;SDS011;69117;47.148;18.954;2023-10-08T10:42:41;2.53;;;0.45;;
79644;SDS011;69117;47.148;18.954;2023-10-08T10:45:48;1.38;;;0.65;;
79644;SDS011;69117;47.148;18.954;2023-10-08T10:48:50;2.78;;;0.93;;
79644;SDS011;69117;47.148;18.954;2023-10-08T10:52:10;2.60;;;1.08;;
79644;SDS011;69117;47.148;18.954;2023-10-08T10:55:19;1.67;;;0.43;;
79644;SDS011;69117;47.148;18.954;2023-10-08T10:58:33;4.88;;;1.05;;
79644;SDS011;69117;47.148;18.954;2023-10-08T11:01:40;0.20;;;0.13;;
79644;SDS011;69117;47.148;18.954;2023-10-08T11:04:50;0.55;;;0.40;;
79644;SDS011;69117;47.148;18.954;2023-10-08T11:07:52;0.70;;;0.40;;
79644;SDS011;69117;47.148;18.954;2023-10-08T11:10:56;3.40;;;0.35;;
79644;SDS011;69117;47.148;18.954;2023-10-08T11:14:00;1.48;;;0.47;;
79644;SDS011;69117;47.148;18.954;2023-10-08T11:17:09;0.43;;;0.28;;
79644;SDS011;69117;47.148;18.954;2023-10-08T11:20:22;0.75;;;0.45;;
79644;SDS011;69117;47.148;18.954;2023-10-08T11:23:31;1.33;;;0.22;;
79644;SDS011;69117;47.148;18.954;2023-10-08T11:26:35;0.08;;;0.08;;
79644;SDS011;69117;47.148;18.954;2023-10-08T11:29:45;0.20;;;0.13;;
79644;SDS011;69117;47.148;18.954;2023-10-08T11:32:58;0.28;;;0.17;;
79644;SDS011;69117;47.148;18.954;2023-10-08T11:36:01;0.28;;;0.28;;
79644;SDS011;69117;47.148;18.954;2023-10-08T11:39:09;0.20;;;0.13;;
79644;SDS011;69117;47.148;18.954;2023-10-08T11:42:13;0.20;;;0.20;;
79644;SDS011;69117;47.148;18.954;2023-10-08T11:45:41;0.43;;;0.40;;
79644;SDS011;69117;47.148;18.954;2023-10-08T11:48:49;1.65;;;0.47;;
79644;SDS011;69117;47.148;18.954;2023-10-08T11:51:51;0.45;;;0.20;;
79644;SDS011;69117;47.148;18.954;2023-10-08T11:54:53;1.30;;;0.35;;
79644;SDS011;69117;47.148;18.954;2023-10-08T11:57:55;0.13;;;0.08;;
79644;SDS011;69117;47.148;18.954;2023-10-08T12:00:58;0.22;;;0.10;;
79644;SDS011;69117;47.148;18.954;2023-10-08T12:04:05;0.13;;;0.13;;
79644;SDS011;69117;47.148;18.954;2023-10-08T12:07:14;0.22;;;0.22;;
79644;SDS011;69117;47.148;18.954;2023-10-08T12:10:19;0.10;;;0.10;;
79644;SDS011;69117;47.148;18.954;2023-10-08T12:13:24;0.60;;;0.20;;
79644;SDS011;69117;47.148;18.954;2023-10-08T12:16:30;0.63;;;0.10;;
79644;SDS011;69117;47.148;18.954;2023-10-08T12:19:39;0.30;;;0.20;;
79644;SDS011;69117;47.148;18.954;2023-10-08T12:22:41;1.10;;;0.52;;
79644;SDS011;69117;47.148;18.954;2023-10-08T12:25:43;0.20;;;0.20;;
79644;SDS011;69117;47.148;18.954;2023-10-08T12:28:53;0.00;;;0.00;;
79644;SDS011;69117;47.148;18.954;2023-10-08T12:31:56;0.03;;;0.03;;
79644;SDS011;69117;47.148;18.954;2023-10-08T12:35:01;1.10;;;0.60;;
79644;SDS011;69117;47.148;18.954;2023-10-08T12:38:02;0.15;;;0.10;;
79644;SDS011;69117;47.148;18.954;2023-10-08T12:41:07;0.55;;;0.13;;
79644;SDS011;69117;47.148;18.954;2023-10-08T12:44:15;0.10;;;0.10;;
79644;SDS011;69117;47.148;18.954;2023-10-08T12:47:17;0.93;;;0.10;;
79644;SDS011;69117;47.148;18.954;2023-10-08T12:50:24;0.03;;;0.03;;
79644;SDS011;69117;47.148;18.954;2023-10-08T12:53:43;1.33;;;0.47;;
79644;SDS011;69117;47.148;18.954;2023-10-08T12:56:52;0.32;;;0.03;;
79644;SDS011;69117;47.148;18.954;2023-10-08T12:59:56;0.75;;;0.63;;
79644;SDS011;69117;47.148;18.954;2023-10-08T13:02:58;0.30;;;0.13;;
79644;SDS011;69117;47.148;18.954;2023-10-08T13:06:02;0.20;;;0.10;;
79644;SDS011;69117;47.148;18.954;2023-10-08T13:09:07;1.73;;;0.08;;
79644;SDS011;69117;47.148;18.954;2023-10-08T13:15:18;0.38;;;0.10;;
79644;SDS011;69117;47.148;18.954;2023-10-08T13:18:20;0.40;;;0.00;;
79644;SDS011;69117;47.148;18.954;2023-10-08T13:21:22;0.03;;;0.03;;
79644;SDS011;69117;47.148;18.954;2023-10-08T13:24:26;0.10;;;0.00;;
79644;SDS011;69117;47.148;18.954;2023-10-08T13:27:30;0.20;;;0.10;;
79644;SDS011;69117;47.148;18.954;2023-10-08T13:30:32;0.03;;;0.03;;
79644;SDS011;69117;47.148;18.954;2023-10-08T13:33:34;0.17;;;0.17;;
79644;SDS011;69117;47.148;18.954;2023-10-08T13:36:36;0.65;;;0.40;;
79644;SDS011;69117;47.148;18.954;2023-10-08T13:39:41;0.03;;;0.03;;
79644;SDS011;69117;47.148;18.954;2023-10-08T13:42:50;0.13;;;0.13;;
79644;SDS011;69117;47.148;18.954;2023-10-08T13:45:53;0.25;;;0.25;;
79644;SDS011;69117;47.148;18.954;2023-10-08T13:48:55;0.17;;;0.17;;
79644;SDS011;69117;47.148;18.954;2023-10-08T13:51:59;0.15;;;0.15;;
79644;SDS011;69117;47.148;18.954;2023-10-08T13:55:00;0.13;;;0.13;;
79644;SDS011;69117;47.148;18.954;2023-10-08T13:58:05;0.47;;;0.13;;
79644;SDS011;69117;47.148;18.954;2023-10-08T14:01:09;0.73;;;0.73;;
79644;SDS011;69117;47.148;18.954;2023-10-08T14:04:21;0.03;;;0.03;;
79644;SDS011;69117;47.148;18.954;2023-10-08T14:07:32;0.22;;;0.22;;
79644;SDS011;69117;47.148;18.954;2023-10-08T14:10:33;0.68;;;0.20;;
79644;SDS011;69117;47.148;18.954;2023-10-08T14:13:37;0.50;;;0.40;;
79644;SDS011;69117;47.148;18.954;2023-10-08T14:16:39;0.17;;;0.17;;
79644;SDS011;69117;47.148;18.954;2023-10-08T14:19:43;0.10;;;0.10;;
79644;SDS011;69117;47.148;18.954;2023-10-08T14:22:48;0.03;;;0.03;;
79644;SDS011;69117;47.148;18.954;2023-10-08T14:25:58;0.25;;;0.25;;
79644;SDS011;69117;47.148;18.954;2023-10-08T14:29:04;0.40;;;0.10;;
79644;SDS011;69117;47.148;18.954;2023-10-08T14:35:13;0.75;;;0.20;;
79644;SDS011;69117;47.148;18.954;2023-10-08T14:38:33;0.10;;;0.03;;
79644;SDS011;69117;47.148;18.954;2023-10-08T14:41:54;0.95;;;0.35;;
79644;SDS011;69117;47.148;18.954;2023-10-08T14:45:14;0.13;;;0.08;;
79644;SDS011;69117;47.148;18.954;2023-10-08T14:48:20;0.10;;;0.00;;
79644;SDS011;69117;47.148;18.954;2023-10-08T14:51:24;0.28;;;0.20;;
79644;SDS011;69117;47.148;18.954;2023-10-08T14:54:27;0.50;;;0.13;;
79644;SDS011;69117;47.148;18.954;2023-10-08T14:57:29;0.08;;;0.08;;
79644;SDS011;69117;47.148;18.954;2023-10-08T15:00:31;0.20;;;0.10;;
79644;SDS011;69117;47.148;18.954;2023-10-08T15:03:33;0.30;;;0.15;;
79644;SDS011;69117;47.148;18.954;2023-10-08T15:06:38;0.90;;;0.30;;
79644;SDS011;69117;47.148;18.954;2023-10-08T15:09:40;0.52;;;0.25;;
79644;SDS011;69117;47.148;18.954;2023-10-08T15:12:42;0.70;;;0.13;;
79644;SDS011;69117;47.148;18.954;2023-10-08T15:15:44;0.28;;;0.13;;
79644;SDS011;69117;47.148;18.954;2023-10-08T15:18:47;0.20;;;0.20;;
79644;SDS011;69117;47.148;18.954;2023-10-08T15:21:49;0.35;;;0.10;;
79644;SDS011;69117;47.148;18.954;2023-10-08T15:24:53;0.10;;;0.03;;
79644;SDS011;69117;47.148;18.954;2023-10-08T15:27:55;0.10;;;0.03;;
79644;SDS011;69117;47.148;18.954;2023-10-08T15:30:57;0.82;;;0.10;;
79644;SDS011;69117;47.148;18.954;2023-10-08T15:33:59;0.17;;;0.17;;
79644;SDS011;69117;47.148;18.954;2023-10-08T15:37:01;0.38;;;0.25;;
79644;SDS011;69117;47.148;18.954;2023-10-08T15:40:03;0.95;;;0.52;;
79644;SDS011;69117;47.148;18.954;2023-10-08T15:43:07;0.73;;;0.20;;
79644;SDS011;69117;47.148;18.954;2023-10-08T15:46:09;0.47;;;0.22;;
79644;SDS011;69117;47.148;18.954;2023-10-08T15:49:10;3.85;;;0.65;;
79644;SDS011;69117;47.148;18.954;2023-10-08T15:52:14;1.00;;;0.50;;
79644;SDS011;69117;47.148;18.954;2023-10-08T15:55:17;0.82;;;0.63;;
79644;SDS011;69117;47.148;18.954;2023-10-08T15:58:23;0.75;;;0.30;;
79644;SDS011;69117;47.148;18.954;2023-10-08T16:01:25;2.20;;;0.20;;
79644;SDS011;69117;47.148;18.954;2023-10-08T16:04:30;1.25;;;0.22;;
79644;SDS011;69117;47.148;18.954;2023-10-08T16:07:32;1.33;;;0.35;;
79644;SDS011;69117;47.148;18.954;2023-10-08T16:10:34;0.60;;;0.22;;
79644;SDS011;69117;47.148;18.954;2023-10-08T16:13:35;0.30;;;0.22;;
79644;SDS011;69117;47.148;18.954;2023-10-08T16:16:39;1.75;;;0.25;;
79644;SDS011;69117;47.148;18.954;2023-10-08T16:19:40;1.10;;;0.20;;
79644;SDS011;69117;47.148;18.954;2023-10-08T16:22:42;1.20;;;0.38;;
79644;SDS011;69117;47.148;18.954;2023-10-08T16:25:49;0.63;;;0.50;;
79644;SDS011;69117;47.148;18.954;2023-10-08T16:31:58;0.45;;;0.32;;
79644;SDS011;69117;47.148;18.954;2023-10-08T16:35:00;0.70;;;0.30;;
79644;SDS011;69117;47.148;18.954;2023-10-08T16:38:01;0.65;;;0.30;;
79644;SDS011;69117;47.148;18.954;2023-10-08T16:41:03;0.40;;;0.25;;
79644;SDS011;69117;47.148;18.954;2023-10-08T16:44:05;0.50;;;0.15;;
79644;SDS011;69117;47.148;18.954;2023-10-08T16:47:07;0.40;;;0.32;;
79644;SDS011;69117;47.148;18.954;2023-10-08T16:50:09;0.50;;;0.47;;
79644;SDS011;69117;47.148;18.954;2023-10-08T16:53:12;0.57;;;0.25;;
79644;SDS011;69117;47.148;18.954;2023-10-08T16:56:17;0.80;;;0.35;;
79644;SDS011;69117;47.148;18.954;2023-10-08T16:59:19;1.15;;;0.70;;
79644;SDS011;69117;47.148;18.954;2023-10-08T17:02:20;0.82;;;0.55;;
79644;SDS011;69117;47.148;18.954;2023-10-08T17:05:24;0.73;;;0.22;;
79644;SDS011;69117;47.148;18.954;2023-10-08T17:08:26;2.58;;;0.70;;
79644;SDS011;69117;47.148;18.954;2023-10-08T17:11:28;2.13;;;1.20;;
79644;SDS011;69117;47.148;18.954;2023-10-08T17:14:30;0.82;;;0.47;;
79644;SDS011;69117;47.148;18.954;2023-10-08T17:17:32;1.10;;;0.32;;
79644;SDS011;69117;47.148;18.954;2023-10-08T17:20:33;0.28;;;0.20;;
79644;SDS011;69117;47.148;18.954;2023-10-08T17:23:35;2.80;;;1.23;;
79644;SDS011;69117;47.148;18.954;2023-10-08T17:26:37;0.88;;;0.40;;
79644;SDS011;69117;47.148;18.954;2023-10-08T17:29:39;2.25;;;0.77;;
79644;SDS011;69117;47.148;18.954;2023-10-08T17:32:43;3.55;;;1.27;;
79644;SDS011;69117;47.148;18.954;2023-10-08T17:35:45;1.02;;;0.93;;
79644;SDS011;69117;47.148;18.954;2023-10-08T17:38:47;1.83;;;0.40;;
79644;SDS011;69117;47.148;18.954;2023-10-08T17:41:49;3.22;;;1.25;;
79644;SDS011;69117;47.148;18.954;2023-10-08T17:44:51;2.40;;;0.63;;
79644;SDS011;69117;47.148;18.954;2023-10-08T17:47:52;1.80;;;0.63;;
79644;SDS011;69117;47.148;18.954;2023-10-08T17:50:54;1.60;;;0.40;;
79644;SDS011;69117;47.148;18.954;2023-10-08T17:53:56;1.83;;;0.40;;
79644;SDS011;69117;47.148;18.954;2023-10-08T17:56:58;1.23;;;0.85;;
79644;SDS011;69117;47.148;18.954;2023-10-08T18:00:01;2.03;;;0.55;;
79644;SDS011;69117;47.148;18.954;2023-10-08T18:03:12;0.77;;;0.55;;
79644;SDS011;69117;47.148;18.954;2023-10-08T18:06:14;0.70;;;0.43;;
79644;SDS011;69117;47.148;18.954;2023-10-08T18:09:17;0.90;;;0.52;;
79644;SDS011;69117;47.148;18.954;2023-10-08T18:12:22;0.60;;;0.32;;
79644;SDS011;69117;47.148;18.954;2023-10-08T18:15:24;0.40;;;0.10;;
79644;SDS011;69117;47.148;18.954;2023-10-08T18:18:29;0.93;;;0.55;;
79644;SDS011;69117;47.148;18.954;2023-10-08T18:21:31;2.85;;;0.57;;
79644;SDS011;69117;47.148;18.954;2023-10-08T18:24:33;0.60;;;0.38;;
79644;SDS011;69117;47.148;18.954;2023-10-08T18:27:36;3.38;;;1.73;;
79644;SDS011;69117;47.148;18.954;2023-10-08T18:30:39;1.38;;;0.47;;
79644;SDS011;69117;47.148;18.954;2023-10-08T18:33:41;1.30;;;0.52;;
79644;SDS011;69117;47.148;18.954;2023-10-08T18:36:44;1.77;;;0.50;;
79644;SDS011;69117;47.148;18.954;2023-10-08T18:39:47;1.45;;;0.57;;
79644;SDS011;69117;47.148;18.954;2023-10-08T18:42:51;1.38;;;0.38;;